createdAt,value
2019-01-06T00:00:49.575Z,1023.18
2019-01-06T00:01:49.601Z,1023.22
2019-01-06T00:02:49.588Z,1023.19
2019-01-06T00:03:49.614Z,1023.19
2019-01-06T00:04:49.555Z,1023.22
2019-01-06T00:05:49.627Z,1023.22
2019-01-06T00:06:49.508Z,1023.21
2019-01-06T00:07:49.538Z,1023.16
2019-01-06T00:08:49.495Z,1023.22
2019-01-06T00:09:49.579Z,1023.18
2019-01-06T00:10:49.465Z,1023.18
2019-01-06T00:11:49.577Z,1023.14
2019-01-06T00:12:49.446Z,1023.20
2019-01-06T00:13:49.482Z,1023.23
2019-01-06T00:14:49.468Z,1023.14
2019-01-06T00:15:49.493Z,1023.21
2019-01-06T00:16:49.399Z,1023.16
2019-01-06T00:17:49.507Z,1023.19
2019-01-06T00:18:49.376Z,1023.17
2019-01-06T00:19:49.454Z,1023.21
2019-01-06T00:20:49.394Z,1023.21
2019-01-06T00:21:49.433Z,1023.20
2019-01-06T00:22:49.333Z,1023.17
2019-01-06T00:23:49.343Z,1023.22
2019-01-06T00:24:49.341Z,1023.18
2019-01-06T00:25:49.356Z,1023.17
2019-01-06T00:26:49.307Z,1023.17
2019-01-06T00:27:49.369Z,1023.18
2019-01-06T00:28:49.271Z,1023.14
2019-01-06T00:29:49.309Z,1023.14
2019-01-06T00:30:49.272Z,1023.19
2019-01-06T00:31:49.296Z,1023.18
2019-01-06T00:32:49.234Z,1023.17
2019-01-06T00:33:49.308Z,1023.15
2019-01-06T00:34:49.215Z,1023.17
2019-01-06T00:35:50.243Z,1023.14
2019-01-06T00:36:49.186Z,1023.16
2019-01-06T00:37:49.234Z,1023.21
2019-01-06T00:38:49.173Z,1023.19
2019-01-06T00:39:49.279Z,1023.18
2019-01-06T00:40:49.137Z,1023.22
2019-01-06T00:41:49.159Z,1023.24
2019-01-06T00:42:49.119Z,1023.24
2019-01-06T00:43:49.175Z,1023.24
2019-01-06T00:44:49.145Z,1023.27
2019-01-06T00:45:49.187Z,1023.27
2019-01-06T00:46:49.072Z,1023.26
2019-01-06T00:47:49.098Z,1023.23
2019-01-06T00:48:49.048Z,1023.27
2019-01-06T00:49:49.143Z,1023.21
2019-01-06T00:50:49.045Z,1023.23
2019-01-06T00:51:49.126Z,1023.23
2019-01-06T00:52:49.005Z,1023.28
2019-01-06T00:53:49.039Z,1023.26
2019-01-06T00:54:49.001Z,1023.28
2019-01-06T00:55:49.051Z,1023.32
2019-01-06T00:56:48.970Z,1023.31
2019-01-06T00:57:49.063Z,1023.33
2019-01-06T00:58:48.937Z,1023.36
2019-01-06T00:59:49.033Z,1023.31
2019-01-06T01:00:48.923Z,1023.31
2019-01-06T01:01:48.996Z,1023.35
2019-01-06T01:02:48.914Z,1023.38
2019-01-06T01:03:48.900Z,1023.31
2019-01-06T01:04:48.890Z,1023.33
2019-01-06T01:05:48.914Z,1023.39
2019-01-06T01:06:48.851Z,1023.34
2019-01-06T01:07:48.927Z,1023.37
2019-01-06T01:08:48.857Z,1023.38
2019-01-06T01:09:48.872Z,1023.38
2019-01-06T01:10:48.812Z,1023.43
2019-01-06T01:11:48.855Z,1023.41
2019-01-06T01:12:48.784Z,1023.40
2019-01-06T01:13:48.867Z,1023.41
2019-01-06T01:14:48.789Z,1023.39
2019-01-06T01:15:48.810Z,1023.40
2019-01-06T01:16:48.741Z,1023.42
2019-01-06T01:17:48.792Z,1023.44
2019-01-06T01:18:48.720Z,1023.43
2019-01-06T01:19:56.690Z,1023.38
2019-01-06T01:20:48.729Z,1023.40
2019-01-06T01:21:49.741Z,1023.42
2019-01-06T01:22:48.694Z,1023.39
2019-01-06T01:23:55.196Z,1023.42
2019-01-06T01:24:48.714Z,1023.42
2019-01-06T01:25:49.726Z,1023.41
2019-01-06T01:26:48.799Z,1023.44
2019-01-06T01:27:48.665Z,1023.45
2019-01-06T01:28:48.613Z,1023.48
2019-01-06T01:29:48.676Z,1023.44
2019-01-06T01:30:48.607Z,1023.48
2019-01-06T01:31:48.715Z,1023.49
2019-01-06T01:32:48.567Z,1023.48
2019-01-06T01:33:48.592Z,1023.46
2019-01-06T01:34:48.549Z,1023.50
2019-01-06T01:35:48.634Z,1023.53
2019-01-06T01:36:48.527Z,1023.56
2019-01-06T01:37:48.644Z,1023.50
2019-01-06T01:38:48.505Z,1023.51
2019-01-06T01:39:48.535Z,1023.55
2019-01-06T01:40:48.494Z,1023.54
2019-01-06T01:41:48.549Z,1023.58
2019-01-06T01:42:48.458Z,1023.59
2019-01-06T01:43:48.583Z,1023.55
2019-01-06T01:44:48.436Z,1023.50
2019-01-06T01:45:48.500Z,1023.59
2019-01-06T01:46:48.413Z,1023.54
2019-01-06T01:47:48.487Z,1023.60
2019-01-06T01:48:48.391Z,1023.58
2019-01-06T01:49:48.412Z,1023.62
2019-01-06T01:50:48.384Z,1023.63
2019-01-06T01:51:48.428Z,1023.63
2019-01-06T01:52:48.352Z,1023.61
2019-01-06T01:53:48.422Z,1023.68
2019-01-06T01:54:48.401Z,1023.62
2019-01-06T01:55:48.528Z,1023.64
2019-01-06T01:56:48.304Z,1023.62
2019-01-06T01:57:48.347Z,1023.63
2019-01-06T01:58:48.283Z,1023.64
2019-01-06T01:59:48.360Z,1023.65
2019-01-06T02:00:48.262Z,1023.68
2019-01-06T02:01:48.312Z,1023.66
2019-01-06T02:02:48.254Z,1023.69
2019-01-06T02:03:48.285Z,1023.69
2019-01-06T02:04:48.228Z,1023.67
2019-01-06T02:05:56.185Z,1023.71
2019-01-06T02:06:48.210Z,1023.68
2019-01-06T02:07:50.306Z,1023.69
2019-01-06T02:08:48.179Z,1023.71
2019-01-06T02:09:55.699Z,1023.73
2019-01-06T02:10:48.155Z,1023.72
2019-01-06T02:11:49.187Z,1023.67
2019-01-06T02:12:48.131Z,1023.69
2019-01-06T02:13:48.164Z,1023.71
2019-01-06T02:14:48.107Z,1023.72
2019-01-06T02:15:48.164Z,1023.71
2019-01-06T02:16:48.174Z,1023.77
2019-01-06T02:17:48.176Z,1023.69
2019-01-06T02:18:48.064Z,1023.75
2019-01-06T02:19:48.098Z,1023.78
2019-01-06T02:20:48.042Z,1023.69
2019-01-06T02:21:48.129Z,1023.70
2019-01-06T02:22:48.028Z,1023.72
2019-01-06T02:23:48.118Z,1023.72
2019-01-06T02:24:47.998Z,1023.71
2019-01-06T02:25:48.044Z,1023.72
2019-01-06T02:26:47.994Z,1023.67
2019-01-06T02:27:48.041Z,1023.67
2019-01-06T02:28:47.956Z,1023.72
2019-01-06T02:29:48.055Z,1023.71
2019-01-06T02:30:47.936Z,1023.68
2019-01-06T02:31:48.019Z,1023.74
2019-01-06T02:32:47.921Z,1023.65
2019-01-06T02:33:47.979Z,1023.71
2019-01-06T02:34:47.917Z,1023.76
2019-01-06T02:35:47.996Z,1023.73
2019-01-06T02:36:47.887Z,1023.72
2019-01-06T02:37:47.924Z,1023.82
2019-01-06T02:38:47.846Z,1023.81
2019-01-06T02:39:47.921Z,1023.78
2019-01-06T02:40:47.824Z,1023.81
2019-01-06T02:41:47.856Z,1023.78
2019-01-06T02:42:47.828Z,1023.81
2019-01-06T02:43:47.878Z,1023.84
2019-01-06T02:44:47.782Z,1023.76
2019-01-06T02:45:47.858Z,1023.77
2019-01-06T02:46:47.776Z,1023.78
2019-01-06T02:47:47.768Z,1023.75
2019-01-06T02:48:47.738Z,1023.76
2019-01-06T02:49:47.800Z,1023.80
2019-01-06T02:50:47.719Z,1023.77
2019-01-06T02:51:51.223Z,1023.77
2019-01-06T02:52:47.697Z,1023.79
2019-01-06T02:53:47.707Z,1023.73
2019-01-06T02:54:47.689Z,1023.76
2019-01-06T02:55:47.745Z,1023.79
2019-01-06T02:56:47.682Z,1023.75
2019-01-06T02:57:48.657Z,1023.79
2019-01-06T02:58:47.628Z,1023.81
2019-01-06T02:59:47.646Z,1023.76
2019-01-06T03:00:47.633Z,1023.81
2019-01-06T03:01:47.686Z,1023.82
2019-01-06T03:02:47.587Z,1023.81
2019-01-06T03:03:47.699Z,1023.81
2019-01-06T03:04:47.565Z,1023.84
2019-01-06T03:05:47.584Z,1023.78
2019-01-06T03:06:47.556Z,1023.88
2019-01-06T03:07:47.632Z,1023.91
2019-01-06T03:08:47.520Z,1023.88
2019-01-06T03:09:47.618Z,1023.90
2019-01-06T03:10:47.497Z,1023.92
2019-01-06T03:11:47.523Z,1023.93
2019-01-06T03:12:47.512Z,1023.87
2019-01-06T03:13:47.536Z,1023.87
2019-01-06T03:14:47.465Z,1023.86
2019-01-06T03:15:47.550Z,1023.86
2019-01-06T03:16:47.436Z,1023.92
2019-01-06T03:17:47.490Z,1023.88
2019-01-06T03:18:47.430Z,1023.86
2019-01-06T03:19:47.475Z,1023.88
2019-01-06T03:20:47.389Z,1023.81
2019-01-06T03:21:47.488Z,1023.81
2019-01-06T03:22:47.385Z,1023.78
2019-01-06T03:23:47.402Z,1023.85
2019-01-06T03:24:47.366Z,1023.81
2019-01-06T03:25:47.421Z,1023.74
2019-01-06T03:26:47.325Z,1023.81
2019-01-06T03:27:47.389Z,1023.78
2019-01-06T03:28:47.304Z,1023.79
2019-01-06T03:29:47.339Z,1023.68
2019-01-06T03:30:47.300Z,1023.76
2019-01-06T03:31:47.355Z,1023.74
2019-01-06T03:32:47.284Z,1023.72
2019-01-06T03:33:47.269Z,1023.73
2019-01-06T03:34:47.245Z,1023.77
2019-01-06T03:35:47.283Z,1023.73
2019-01-06T03:36:47.235Z,1023.68
2019-01-06T03:37:48.346Z,1023.70
2019-01-06T03:38:47.192Z,1023.72
2019-01-06T03:39:47.206Z,1023.78
2019-01-06T03:40:47.175Z,1023.72
2019-01-06T03:41:54.692Z,1023.75
2019-01-06T03:42:47.176Z,1023.70
2019-01-06T03:43:48.181Z,1023.76
2019-01-06T03:44:47.128Z,1023.76
2019-01-06T03:45:47.142Z,1023.72
2019-01-06T03:46:47.108Z,1023.73
2019-01-06T03:47:47.155Z,1023.77
2019-01-06T03:48:47.110Z,1023.75
2019-01-06T03:49:47.173Z,1023.79
2019-01-06T03:50:47.073Z,1023.78
2019-01-06T03:51:47.099Z,1023.80
2019-01-06T03:52:47.041Z,1023.78
2019-01-06T03:53:47.124Z,1023.82
2019-01-06T03:54:47.039Z,1023.81
2019-01-06T03:55:47.114Z,1023.94
2019-01-06T03:56:46.997Z,1023.83
2019-01-06T03:57:47.023Z,1023.81
2019-01-06T03:58:46.991Z,1023.84
2019-01-06T03:59:47.035Z,1023.87
2019-01-06T04:00:46.969Z,1023.91
2019-01-06T04:01:47.049Z,1023.82
2019-01-06T04:02:46.935Z,1023.80
2019-01-06T04:03:46.987Z,1023.90
2019-01-06T04:04:46.915Z,1023.98
2019-01-06T04:05:46.977Z,1023.91
2019-01-06T04:06:46.907Z,1023.93
2019-01-06T04:07:46.990Z,1023.96
2019-01-06T04:08:46.884Z,1023.94
2019-01-06T04:09:46.901Z,1023.90
2019-01-06T04:10:46.852Z,1023.81
2019-01-06T04:11:46.917Z,1023.98
2019-01-06T04:12:46.844Z,1023.94
2019-01-06T04:13:46.862Z,1023.98
2019-01-06T04:14:46.811Z,1023.94
2019-01-06T04:15:46.836Z,1023.91
2019-01-06T04:16:46.783Z,1023.98
2019-01-06T04:17:46.869Z,1023.88
2019-01-06T04:18:46.795Z,1023.86
2019-01-06T04:19:46.761Z,1023.98
2019-01-06T04:20:46.737Z,1023.98
2019-01-06T04:21:46.792Z,1023.96
2019-01-06T04:22:46.716Z,1024.00
2019-01-06T04:23:51.245Z,1023.99
2019-01-06T04:24:46.713Z,1024.01
2019-01-06T04:25:46.703Z,1023.97
2019-01-06T04:26:46.673Z,1023.90
2019-01-06T04:27:54.189Z,1023.92
2019-01-06T04:28:46.685Z,1023.96
2019-01-06T04:29:48.690Z,1023.91
2019-01-06T04:30:46.633Z,1023.94
2019-01-06T04:31:46.637Z,1023.91
2019-01-06T04:32:46.608Z,1023.95
2019-01-06T04:33:46.651Z,1023.91
2019-01-06T04:34:46.665Z,1023.95
2019-01-06T04:35:46.688Z,1023.95
2019-01-06T04:36:46.565Z,1023.90
2019-01-06T04:37:46.583Z,1023.93
2019-01-06T04:38:46.572Z,1023.90
2019-01-06T04:39:46.627Z,1023.92
2019-01-06T04:40:46.525Z,1023.95
2019-01-06T04:41:46.637Z,1023.96
2019-01-06T04:42:46.499Z,1023.98
2019-01-06T04:43:46.524Z,1023.99
2019-01-06T04:44:46.496Z,1023.96
2019-01-06T04:45:46.534Z,1023.91
2019-01-06T04:46:46.457Z,1023.99
2019-01-06T04:47:46.574Z,1023.99
2019-01-06T04:48:46.434Z,1024.00
2019-01-06T04:49:46.487Z,1023.91
2019-01-06T04:50:46.413Z,1023.98
2019-01-06T04:51:46.469Z,1023.96
2019-01-06T04:52:46.391Z,1024.02
2019-01-06T04:53:46.503Z,1023.95
2019-01-06T04:54:46.384Z,1023.94
2019-01-06T04:55:46.394Z,1023.97
2019-01-06T04:56:46.346Z,1024.00
2019-01-06T04:57:46.408Z,1023.93
2019-01-06T04:58:46.326Z,1024.01
2019-01-06T04:59:46.365Z,1023.96
2019-01-06T05:00:46.306Z,1024.03
2019-01-06T05:01:46.330Z,1023.99
2019-01-06T05:02:46.285Z,1023.98
2019-01-06T05:03:46.350Z,1024.00
2019-01-06T05:04:46.287Z,1023.95
2019-01-06T05:05:46.374Z,1023.98
2019-01-06T05:06:46.238Z,1023.97
2019-01-06T05:07:46.359Z,1023.99
2019-01-06T05:08:46.223Z,1023.97
2019-01-06T05:09:47.340Z,1023.94
2019-01-06T05:10:46.195Z,1023.96
2019-01-06T05:11:54.203Z,1023.98
2019-01-06T05:12:46.173Z,1023.94
2019-01-06T05:13:53.686Z,1023.97
2019-01-06T05:14:46.167Z,1023.98
2019-01-06T05:15:48.167Z,1023.96
2019-01-06T05:16:46.129Z,1023.97
2019-01-06T05:17:46.151Z,1024.04
2019-01-06T05:18:46.109Z,1023.96
2019-01-06T05:19:46.182Z,1023.98
2019-01-06T05:20:46.087Z,1023.98
2019-01-06T05:21:46.186Z,1023.96
2019-01-06T05:22:46.066Z,1023.95
2019-01-06T05:23:46.083Z,1024.00
2019-01-06T05:24:46.061Z,1023.89
2019-01-06T05:25:46.086Z,1023.89
2019-01-06T05:26:46.023Z,1023.89
2019-01-06T05:27:46.105Z,1023.95
2019-01-06T05:28:46.000Z,1023.93
2019-01-06T05:29:46.063Z,1023.95
2019-01-06T05:30:45.978Z,1023.96
2019-01-06T05:31:46.026Z,1023.96
2019-01-06T05:32:45.961Z,1023.96
2019-01-06T05:33:46.041Z,1024.02
2019-01-06T05:34:45.949Z,1024.06
2019-01-06T05:35:45.979Z,1023.99
2019-01-06T05:36:45.915Z,1024.03
2019-01-06T05:37:45.964Z,1024.06
2019-01-06T05:38:45.897Z,1024.07
2019-01-06T05:39:46.009Z,1024.08
2019-01-06T05:40:45.872Z,1024.11
2019-01-06T05:41:45.908Z,1024.06
2019-01-06T05:42:45.857Z,1024.06
2019-01-06T05:43:45.903Z,1024.07
2019-01-06T05:44:45.855Z,1024.08
2019-01-06T05:45:45.918Z,1024.05
2019-01-06T05:46:45.805Z,1024.04
2019-01-06T05:47:45.846Z,1024.02
2019-01-06T05:48:45.786Z,1024.02
2019-01-06T05:49:45.842Z,1024.07
2019-01-06T05:50:45.776Z,1024.08
2019-01-06T05:51:45.860Z,1024.05
2019-01-06T05:52:45.744Z,1024.05
2019-01-06T05:53:45.778Z,1024.04
2019-01-06T05:54:45.719Z,1024.06
2019-01-06T05:55:50.217Z,1024.09
2019-01-06T05:56:45.696Z,1024.05
2019-01-06T05:57:47.743Z,1024.08
2019-01-06T05:58:45.673Z,1024.07
2019-01-06T05:59:45.717Z,1024.08
2019-01-06T06:00:45.671Z,1024.09
2019-01-06T06:01:47.671Z,1024.10
2019-01-06T06:02:45.629Z,1024.11
2019-01-06T06:03:45.736Z,1024.09
2019-01-06T06:04:45.627Z,1024.12
2019-01-06T06:05:45.685Z,1024.14
2019-01-06T06:06:45.587Z,1024.13
2019-01-06T06:07:45.688Z,1024.10
2019-01-06T06:08:45.564Z,1024.09
2019-01-06T06:09:45.570Z,1024.16
2019-01-06T06:10:45.571Z,1024.11
2019-01-06T06:11:45.583Z,1024.13
2019-01-06T06:12:45.526Z,1024.15
2019-01-06T06:13:45.599Z,1024.17
2019-01-06T06:14:45.498Z,1024.17
2019-01-06T06:15:45.546Z,1024.16
2019-01-06T06:16:45.497Z,1024.17
2019-01-06T06:17:45.521Z,1024.19
2019-01-06T06:18:45.459Z,1024.22
2019-01-06T06:19:45.538Z,1024.20
2019-01-06T06:20:45.450Z,1024.25
2019-01-06T06:21:45.446Z,1024.24
2019-01-06T06:22:45.427Z,1024.24
2019-01-06T06:23:45.459Z,1024.22
2019-01-06T06:24:45.388Z,1024.21
2019-01-06T06:25:45.507Z,1024.24
2019-01-06T06:26:45.368Z,1024.24
2019-01-06T06:27:45.388Z,1024.28
2019-01-06T06:28:45.364Z,1024.26
2019-01-06T06:29:45.399Z,1024.28
2019-01-06T06:30:45.329Z,1024.28
2019-01-06T06:31:45.441Z,1024.28
2019-01-06T06:32:45.302Z,1024.29
2019-01-06T06:33:45.325Z,1024.24
2019-01-06T06:34:45.304Z,1024.30
2019-01-06T06:35:45.338Z,1024.34
2019-01-06T06:36:45.279Z,1024.26
2019-01-06T06:37:45.350Z,1024.30
2019-01-06T06:38:45.240Z,1024.34
2019-01-06T06:39:45.266Z,1024.31
2019-01-06T06:40:45.232Z,1024.28
2019-01-06T06:41:49.706Z,1024.25
2019-01-06T06:42:45.194Z,1024.34
2019-01-06T06:43:46.211Z,1024.26
2019-01-06T06:44:45.171Z,1024.27
2019-01-06T06:45:45.210Z,1024.29
2019-01-06T06:46:45.168Z,1024.38
2019-01-06T06:47:47.240Z,1024.31
2019-01-06T06:48:45.141Z,1024.33
2019-01-06T06:49:46.152Z,1024.36
2019-01-06T06:50:45.109Z,1024.36
2019-01-06T06:51:45.185Z,1024.41
2019-01-06T06:52:45.089Z,1024.42
2019-01-06T06:53:45.153Z,1024.44
2019-01-06T06:54:45.064Z,1024.50
2019-01-06T06:55:45.064Z,1024.47
2019-01-06T06:56:45.057Z,1024.46
2019-01-06T06:57:45.090Z,1024.50
2019-01-06T06:58:45.027Z,1024.52
2019-01-06T06:59:45.097Z,1024.48
2019-01-06T07:00:44.998Z,1024.50
2019-01-06T07:01:45.030Z,1024.52
2019-01-06T07:02:44.977Z,1024.50
2019-01-06T07:03:45.046Z,1024.53
2019-01-06T07:04:44.955Z,1024.55
2019-01-06T07:05:45.030Z,1024.56
2019-01-06T07:06:44.951Z,1024.53
2019-01-06T07:07:44.947Z,1024.61
2019-01-06T07:08:44.913Z,1024.63
2019-01-06T07:09:45.076Z,1024.65
2019-01-06T07:10:44.895Z,1024.64
2019-01-06T07:11:44.996Z,1024.65
2019-01-06T07:12:44.867Z,1024.71
2019-01-06T07:13:44.883Z,1024.69
2019-01-06T07:14:44.852Z,1024.73
2019-01-06T07:15:44.929Z,1024.70
2019-01-06T07:16:44.840Z,1024.73
2019-01-06T07:17:44.908Z,1024.70
2019-01-06T07:18:44.807Z,1024.73
2019-01-06T07:19:44.820Z,1024.71
2019-01-06T07:20:44.781Z,1024.71
2019-01-06T07:21:44.887Z,1024.73
2019-01-06T07:22:44.760Z,1024.72
2019-01-06T07:23:44.846Z,1024.74
2019-01-06T07:24:44.738Z,1024.74
2019-01-06T07:25:44.758Z,1024.79
2019-01-06T07:26:44.715Z,1024.79
2019-01-06T07:27:50.243Z,1024.83
2019-01-06T07:28:44.699Z,1024.83
2019-01-06T07:29:45.707Z,1024.84
2019-01-06T07:30:44.676Z,1024.82
2019-01-06T07:31:44.698Z,1024.88
2019-01-06T07:32:44.665Z,1024.86
2019-01-06T07:33:46.790Z,1024.88
2019-01-06T07:34:44.634Z,1024.84
2019-01-06T07:35:45.651Z,1024.91
2019-01-06T07:36:44.613Z,1024.84
2019-01-06T07:37:44.668Z,1024.95
2019-01-06T07:38:44.588Z,1024.95
2019-01-06T07:39:44.675Z,1024.93
2019-01-06T07:40:44.569Z,1024.98
2019-01-06T07:41:44.667Z,1025.03
2019-01-06T07:42:44.556Z,1025.03
2019-01-06T07:43:44.579Z,1025.08
2019-01-06T07:44:44.524Z,1025.05
2019-01-06T07:45:44.606Z,1025.13
2019-01-06T07:46:44.498Z,1025.13
2019-01-06T07:47:44.529Z,1025.10
2019-01-06T07:48:44.477Z,1025.13
2019-01-06T07:49:44.514Z,1025.12
2019-01-06T07:50:44.456Z,1025.10
2019-01-06T07:51:45.046Z,1025.16
2019-01-06T07:52:44.479Z,1025.16
2019-01-06T07:53:44.439Z,1025.15
2019-01-06T07:54:44.416Z,1025.20
2019-01-06T07:55:44.452Z,1025.22
2019-01-06T07:56:44.390Z,1025.16
2019-01-06T07:57:44.528Z,1025.18
2019-01-06T07:58:44.369Z,1025.22
2019-01-06T07:59:44.376Z,1025.23
2019-01-06T08:00:44.346Z,1025.21
2019-01-06T08:01:44.390Z,1025.23
2019-01-06T08:02:44.343Z,1025.21
2019-01-06T08:03:44.414Z,1025.23
2019-01-06T08:04:44.302Z,1025.21
2019-01-06T08:05:44.316Z,1025.28
2019-01-06T08:06:44.282Z,1025.31
2019-01-06T08:07:44.383Z,1025.27
2019-01-06T08:08:44.263Z,1025.30
2019-01-06T08:09:44.347Z,1025.28
2019-01-06T08:10:44.238Z,1025.32
2019-01-06T08:11:44.255Z,1025.26
2019-01-06T08:12:44.248Z,1025.31
2019-01-06T08:13:44.268Z,1025.29
2019-01-06T08:14:44.193Z,1025.25
2019-01-06T08:15:44.310Z,1025.30
2019-01-06T08:16:44.247Z,1025.26
2019-01-06T08:17:44.223Z,1025.27
2019-01-06T08:18:44.167Z,1025.34
2019-01-06T08:19:44.208Z,1025.29
2019-01-06T08:20:44.136Z,1025.35
2019-01-06T08:21:45.169Z,1025.32
2019-01-06T08:22:44.109Z,1025.32
2019-01-06T08:23:44.186Z,1025.31
2019-01-06T08:24:44.088Z,1025.37
2019-01-06T08:25:44.145Z,1025.34
2019-01-06T08:26:44.075Z,1025.39
2019-01-06T08:27:44.185Z,1025.37
2019-01-06T08:28:44.057Z,1025.39
2019-01-06T08:29:44.071Z,1025.35
2019-01-06T08:30:44.021Z,1025.37
2019-01-06T08:31:44.092Z,1025.38
2019-01-06T08:32:44.003Z,1025.38
2019-01-06T08:33:44.043Z,1025.41
2019-01-06T08:34:44.022Z,1025.40
2019-01-06T08:35:44.012Z,1025.43
2019-01-06T08:36:43.958Z,1025.41
2019-01-06T08:37:44.026Z,1025.41
2019-01-06T08:38:43.951Z,1025.48
2019-01-06T08:39:43.966Z,1025.40
2019-01-06T08:40:43.911Z,1025.42
2019-01-06T08:41:43.949Z,1025.47
2019-01-06T08:42:43.892Z,1025.40
2019-01-06T08:43:43.996Z,1025.43
2019-01-06T08:44:43.868Z,1025.45
2019-01-06T08:45:43.892Z,1025.43
2019-01-06T08:46:43.849Z,1025.43
2019-01-06T08:47:43.889Z,1025.44
2019-01-06T08:48:43.841Z,1025.48
2019-01-06T08:49:43.900Z,1025.49
2019-01-06T08:50:43.805Z,1025.44
2019-01-06T08:51:43.833Z,1025.46
2019-01-06T08:52:43.782Z,1025.50
2019-01-06T08:53:43.853Z,1025.47
2019-01-06T08:54:43.761Z,1025.55
2019-01-06T08:55:43.844Z,1025.50
2019-01-06T08:56:43.739Z,1025.51
2019-01-06T08:57:43.775Z,1025.48
2019-01-06T08:58:43.730Z,1025.51
2019-01-06T08:59:43.764Z,1025.50
2019-01-06T09:00:43.694Z,1025.56
2019-01-06T09:01:43.783Z,1025.51
2019-01-06T09:02:43.676Z,1025.54
2019-01-06T09:03:43.936Z,1025.56
2019-01-06T09:04:43.653Z,1025.53
2019-01-06T09:05:43.703Z,1025.56
2019-01-06T09:06:43.628Z,1025.58
2019-01-06T09:07:43.728Z,1025.58
2019-01-06T09:08:44.639Z,1025.61
2019-01-06T09:09:45.701Z,1025.57
2019-01-06T09:10:43.587Z,1025.57
2019-01-06T09:11:43.665Z,1025.58
2019-01-06T09:12:45.292Z,1025.61
2019-01-06T09:13:43.659Z,1025.63
2019-01-06T09:14:43.557Z,1025.62
2019-01-06T09:15:43.585Z,1025.64
2019-01-06T09:16:43.521Z,1025.63
2019-01-06T09:17:43.598Z,1025.61
2019-01-06T09:18:43.499Z,1025.57
2019-01-06T09:19:50.316Z,1025.60
2019-01-06T09:20:44.473Z,1025.64
2019-01-06T09:21:43.523Z,1025.60
2019-01-06T09:22:43.456Z,1025.62
2019-01-06T09:23:43.527Z,1025.61
2019-01-06T09:24:43.445Z,1025.61
2019-01-06T09:25:43.537Z,1025.58
2019-01-06T09:26:43.409Z,1025.66
2019-01-06T09:27:43.478Z,1025.59
2019-01-06T09:28:43.388Z,1025.65
2019-01-06T09:29:43.492Z,1025.63
2019-01-06T09:30:43.389Z,1025.65
2019-01-06T09:31:43.374Z,1025.66
2019-01-06T09:32:43.351Z,1025.64
2019-01-06T09:33:43.395Z,1025.67
2019-01-06T09:34:43.353Z,1025.59
2019-01-06T09:35:43.426Z,1025.62
2019-01-06T09:36:43.308Z,1025.67
2019-01-06T09:37:43.332Z,1025.63
2019-01-06T09:38:43.282Z,1025.62
2019-01-06T09:39:43.368Z,1025.63
2019-01-06T09:40:43.264Z,1025.60
2019-01-06T09:41:43.461Z,1025.65
2019-01-06T09:42:43.261Z,1025.69
2019-01-06T09:43:50.243Z,1025.69
2019-01-06T09:44:43.238Z,1025.65
2019-01-06T09:45:50.256Z,1025.66
2019-01-06T09:46:43.204Z,1025.69
2019-01-06T09:47:44.215Z,1025.71
2019-01-06T09:48:43.169Z,1025.68
2019-01-06T09:49:43.214Z,1025.65
2019-01-06T09:50:43.151Z,1025.71
2019-01-06T09:51:43.220Z,1025.71
2019-01-06T09:52:43.123Z,1025.72
2019-01-06T09:53:44.152Z,1025.72
2019-01-06T09:54:43.130Z,1025.73
2019-01-06T09:55:43.127Z,1025.73
2019-01-06T09:56:43.083Z,1025.74
2019-01-06T09:57:43.178Z,1025.77
2019-01-06T09:58:43.063Z,1025.73
2019-01-06T09:59:43.141Z,1025.74
2019-01-06T10:00:43.100Z,1025.77
2019-01-06T10:01:43.093Z,1025.75
2019-01-06T10:02:43.031Z,1025.76
2019-01-06T10:03:43.115Z,1025.76
2019-01-06T10:04:43.156Z,1025.73
2019-01-06T10:05:43.121Z,1025.81
2019-01-06T10:06:42.987Z,1025.81
2019-01-06T10:07:43.012Z,1025.78
2019-01-06T10:08:42.961Z,1025.79
2019-01-06T10:09:43.030Z,1025.77
2019-01-06T10:10:42.959Z,1025.73
2019-01-06T10:11:43.035Z,1025.80
2019-01-06T10:12:42.904Z,1025.84
2019-01-06T10:13:42.944Z,1025.85
2019-01-06T10:14:42.899Z,1025.83
2019-01-06T10:15:42.985Z,1025.86
2019-01-06T10:16:42.861Z,1025.78
2019-01-06T10:17:42.870Z,1025.82
2019-01-06T10:18:42.841Z,1025.85
2019-01-06T10:19:42.884Z,1025.80
2019-01-06T10:20:42.837Z,1025.82
2019-01-06T10:21:42.919Z,1025.89
2019-01-06T10:22:42.796Z,1025.86
2019-01-06T10:23:42.807Z,1025.83
2019-01-06T10:24:42.779Z,1025.86
2019-01-06T10:25:42.851Z,1025.89
2019-01-06T10:26:42.827Z,1025.87
2019-01-06T10:27:42.833Z,1025.93
2019-01-06T10:28:42.773Z,1025.91
2019-01-06T10:29:43.820Z,1025.90
2019-01-06T10:30:42.729Z,1025.94
2019-01-06T10:31:42.765Z,1025.94
2019-01-06T10:32:42.692Z,1025.99
2019-01-06T10:33:43.700Z,1025.92
2019-01-06T10:34:42.684Z,1025.91
2019-01-06T10:35:42.735Z,1025.93
2019-01-06T10:36:42.671Z,1025.92
2019-01-06T10:37:42.709Z,1025.96
2019-01-06T10:38:42.755Z,1025.87
2019-01-06T10:39:42.890Z,1025.89
2019-01-06T10:40:42.649Z,1025.94
2019-01-06T10:41:42.625Z,1025.92
2019-01-06T10:42:42.585Z,1025.93
2019-01-06T10:43:42.642Z,1025.88
2019-01-06T10:44:42.576Z,1025.87
2019-01-06T10:45:42.686Z,1025.91
2019-01-06T10:46:42.673Z,1025.84
2019-01-06T10:47:42.648Z,1025.85
2019-01-06T10:48:42.551Z,1025.87
2019-01-06T10:49:42.615Z,1025.88
2019-01-06T10:50:42.596Z,1025.85
2019-01-06T10:51:42.591Z,1025.84
2019-01-06T10:52:42.474Z,1025.84
2019-01-06T10:53:42.509Z,1025.84
2019-01-06T10:54:42.449Z,1025.85
2019-01-06T10:55:42.526Z,1025.88
2019-01-06T10:56:42.445Z,1025.89
2019-01-06T10:57:42.540Z,1025.84
2019-01-06T10:58:42.439Z,1025.90
2019-01-06T10:59:42.514Z,1025.86
2019-01-06T11:00:42.468Z,1025.87
2019-01-06T11:01:42.530Z,1025.86
2019-01-06T11:02:42.397Z,1025.85
2019-01-06T11:03:42.375Z,1025.87
2019-01-06T11:04:42.349Z,1025.86
2019-01-06T11:05:42.420Z,1025.79
2019-01-06T11:06:42.339Z,1025.87
2019-01-06T11:07:42.407Z,1025.83
2019-01-06T11:08:42.300Z,1025.90
2019-01-06T11:09:42.300Z,1025.89
2019-01-06T11:10:42.289Z,1025.88
2019-01-06T11:11:42.340Z,1025.89
2019-01-06T11:12:42.269Z,1025.90
2019-01-06T11:13:42.340Z,1025.86
2019-01-06T11:14:42.232Z,1025.87
2019-01-06T11:15:49.201Z,1025.88
2019-01-06T11:16:42.221Z,1025.88
2019-01-06T11:18:42.189Z,1025.85
2019-01-06T11:19:43.192Z,1025.86
2019-01-06T11:20:42.167Z,1025.92
2019-01-06T11:21:42.203Z,1025.88
2019-01-06T11:22:42.146Z,1025.92
2019-01-06T11:23:42.191Z,1025.93
2019-01-06T11:24:42.128Z,1025.89
2019-01-06T11:25:42.209Z,1025.90
2019-01-06T11:26:42.116Z,1025.87
2019-01-06T11:27:42.115Z,1025.86
2019-01-06T11:28:42.129Z,1025.89
2019-01-06T11:29:42.170Z,1025.85
2019-01-06T11:30:42.056Z,1025.86
2019-01-06T11:31:42.105Z,1025.86
2019-01-06T11:32:42.031Z,1025.89
2019-01-06T11:33:42.054Z,1025.90
2019-01-06T11:34:42.009Z,1025.87
2019-01-06T11:35:42.067Z,1025.89
2019-01-06T11:36:42.001Z,1025.88
2019-01-06T11:37:42.107Z,1025.84
2019-01-06T11:38:41.965Z,1025.86
2019-01-06T11:39:41.993Z,1025.90
2019-01-06T11:40:41.946Z,1025.90
2019-01-06T11:41:42.035Z,1025.88
2019-01-06T11:42:41.920Z,1025.85
2019-01-06T11:43:42.028Z,1025.87
2019-01-06T11:44:41.899Z,1025.90
2019-01-06T11:45:41.934Z,1025.88
2019-01-06T11:46:41.911Z,1025.86
2019-01-06T11:47:41.945Z,1025.90
2019-01-06T11:48:41.858Z,1025.84
2019-01-06T11:49:41.865Z,1025.89
2019-01-06T11:50:41.858Z,1025.87
2019-01-06T11:51:41.897Z,1025.87
2019-01-06T11:52:41.811Z,1025.87
2019-01-06T11:53:41.884Z,1025.81
2019-01-06T11:54:41.788Z,1025.82
2019-01-06T11:55:42.070Z,1025.83
2019-01-06T11:56:41.825Z,1025.84
2019-01-06T11:57:41.809Z,1025.85
2019-01-06T11:58:41.746Z,1025.83
2019-01-06T11:59:41.823Z,1025.82
2019-01-06T12:00:41.724Z,1025.81
2019-01-06T12:01:43.815Z,1025.83
2019-01-06T12:02:41.717Z,1025.78
2019-01-06T12:03:42.772Z,1025.82
2019-01-06T12:04:41.680Z,1025.85
2019-01-06T12:05:42.691Z,1025.83
2019-01-06T12:06:41.658Z,1025.83